createdAt,value
2019-02-21T00:00:24.157Z,96.00
2019-02-21T00:12:55.544Z,96.00
2019-02-21T00:15:24.011Z,96.30
2019-02-21T00:17:52.481Z,96.70
2019-02-21T00:20:21.042Z,96.40
2019-02-21T00:22:49.511Z,96.50
2019-02-21T00:25:18.075Z,96.40
2019-02-21T00:27:46.571Z,96.60
2019-02-21T00:30:15.220Z,96.60
2019-02-21T00:32:43.751Z,96.60
2019-02-21T00:35:12.218Z,96.80
2019-02-21T00:37:40.709Z,96.90
2019-02-21T00:40:09.170Z,97.10
2019-02-21T00:42:37.666Z,97.10
2019-02-21T00:45:06.644Z,97.30
2019-02-21T00:47:35.115Z,97.30
2019-02-21T00:50:03.874Z,97.10
2019-02-21T00:52:32.367Z,97.00
2019-02-21T00:55:00.827Z,97.20
2019-02-21T00:57:29.295Z,97.10
2019-02-21T00:59:57.787Z,97.00
2019-02-21T01:02:26.335Z,97.10
2019-02-21T01:04:54.899Z,97.10
2019-02-21T01:07:23.450Z,97.10
2019-02-21T01:09:52.054Z,97.10
2019-02-21T01:12:20.914Z,97.20
2019-02-21T01:14:49.627Z,97.20
2019-02-21T01:17:18.094Z,97.20
2019-02-21T01:19:46.651Z,97.30
2019-02-21T01:22:15.191Z,97.30
2019-02-21T01:24:43.750Z,97.30
2019-02-21T01:27:12.232Z,97.40
2019-02-21T01:29:40.874Z,97.40
2019-02-21T01:32:09.337Z,97.40
2019-02-21T01:34:37.818Z,97.40
2019-02-21T01:37:06.351Z,97.40
2019-02-21T01:39:34.904Z,97.70
2019-02-21T01:42:03.471Z,98.00
2019-02-21T01:44:32.015Z,98.00
2019-02-21T01:47:00.507Z,97.80
2019-02-21T01:49:28.980Z,97.70
2019-02-21T01:51:57.532Z,97.70
2019-02-21T01:54:45.331Z,97.70
2019-02-21T01:57:13.828Z,97.50
2019-02-21T01:59:42.370Z,97.40
2019-02-21T02:02:10.828Z,97.50
2019-02-21T02:04:39.391Z,97.50
2019-02-21T02:07:07.863Z,97.90
2019-02-21T02:09:36.494Z,98.00
2019-02-21T02:12:04.955Z,98.00
2019-02-21T02:14:33.610Z,97.80
2019-02-21T02:17:02.074Z,97.70
2019-02-21T02:19:30.683Z,97.80
2019-02-21T02:21:59.291Z,98.20
2019-02-21T02:24:27.791Z,98.40
2019-02-21T02:26:56.330Z,98.70
2019-02-21T02:29:24.864Z,99.00
2019-02-21T02:31:53.428Z,98.90
2019-02-21T02:34:21.963Z,98.50
2019-02-21T02:36:50.471Z,98.20
2019-02-21T02:39:19.092Z,97.90
2019-02-21T02:41:47.616Z,97.40
2019-02-21T02:44:16.175Z,97.20
2019-02-21T02:46:44.665Z,97.00
2019-02-21T02:49:13.214Z,97.00
2019-02-21T02:51:41.848Z,96.80
2019-02-21T02:54:10.407Z,96.70
2019-02-21T02:56:38.970Z,96.70
2019-02-21T02:59:07.532Z,97.10
2019-02-21T03:01:35.997Z,97.40
2019-02-21T03:04:04.661Z,97.30
2019-02-21T03:06:33.191Z,97.10
2019-02-21T03:09:01.725Z,97.10
2019-02-21T03:11:30.259Z,97.20
2019-02-21T03:13:58.802Z,97.10
2019-02-21T03:16:27.427Z,96.80
2019-02-21T03:18:55.890Z,96.60
2019-02-21T03:21:24.383Z,96.50
2019-02-21T03:23:52.888Z,96.30
2019-02-21T03:26:21.426Z,96.10
2019-02-21T03:28:49.891Z,96.20
2019-02-21T03:31:18.474Z,96.20
2019-02-21T03:33:47.109Z,96.20
2019-02-21T03:36:15.662Z,96.50
2019-02-21T03:38:44.360Z,96.60
2019-02-21T03:41:12.919Z,96.70
2019-02-21T03:43:41.387Z,96.80
2019-02-21T03:46:09.883Z,96.80
2019-02-21T03:48:38.443Z,96.80
2019-02-21T03:51:06.905Z,96.90
2019-02-21T03:53:35.460Z,97.00
2019-02-21T03:56:04.137Z,97.00
2019-02-21T03:58:32.699Z,97.00
2019-02-21T04:01:01.230Z,97.10
2019-02-21T04:03:29.786Z,97.40
2019-02-21T04:05:58.412Z,97.50
2019-02-21T04:08:26.907Z,97.60
2019-02-21T04:10:55.447Z,97.60
2019-02-21T04:13:23.937Z,97.50
2019-02-21T04:15:52.471Z,97.50
2019-02-21T04:18:20.979Z,97.50
2019-02-21T04:20:49.442Z,97.60
2019-02-21T04:23:17.953Z,97.70
2019-02-21T04:25:46.499Z,97.80
2019-02-21T04:28:15.057Z,98.00
2019-02-21T04:30:43.547Z,98.30
2019-02-21T04:33:12.119Z,98.60
2019-02-21T04:35:40.655Z,98.60
2019-02-21T04:38:09.127Z,98.50
2019-02-21T04:40:37.697Z,98.40
2019-02-21T04:43:06.239Z,98.20
2019-02-21T04:45:34.779Z,98.20
2019-02-21T04:48:03.344Z,98.00
2019-02-21T04:50:31.903Z,98.10
2019-02-21T04:53:00.396Z,98.20
2019-02-21T04:55:28.855Z,98.20
2019-02-21T04:57:57.343Z,98.40
2019-02-21T05:00:26.015Z,98.90
2019-02-21T05:02:54.507Z,98.90
2019-02-21T05:05:23.107Z,98.90
2019-02-21T05:07:51.594Z,98.60
2019-02-21T05:10:20.058Z,98.50
2019-02-21T05:12:48.544Z,98.40
2019-02-21T05:15:17.032Z,98.00
2019-02-21T05:17:45.571Z,97.70
2019-02-21T05:20:14.065Z,97.70
2019-02-21T05:22:42.600Z,97.80
2019-02-21T05:25:11.086Z,97.90
2019-02-21T05:27:40.223Z,98.10
2019-02-21T05:30:11.430Z,98.20
2019-02-21T05:32:41.614Z,98.30
2019-02-21T05:35:11.735Z,98.70
2019-02-21T05:37:57.906Z,98.50
2019-02-21T05:40:28.772Z,98.40
2019-02-21T05:43:05.288Z,98.30
2019-02-21T05:45:35.412Z,98.30
2019-02-21T05:48:05.543Z,98.20
2019-02-21T05:50:41.605Z,98.30
2019-02-21T05:53:14.949Z,98.30
2019-02-21T05:55:45.059Z,98.30
2019-02-21T05:58:15.188Z,98.00
2019-02-21T06:01:01.516Z,97.70
2019-02-21T06:03:40.702Z,97.80
2019-02-21T06:06:10.907Z,97.50
2019-02-21T06:08:44.208Z,97.50
2019-02-21T06:11:30.822Z,97.40
2019-02-21T06:14:13.047Z,97.20
2019-02-21T06:16:43.192Z,97.00
2019-02-21T06:19:22.358Z,96.80
2019-02-21T06:21:55.375Z,96.80
2019-02-21T06:24:34.787Z,96.90
2019-02-21T06:27:12.297Z,96.90
2019-02-21T06:29:45.311Z,97.10
2019-02-21T06:32:14.679Z,97.20
2019-02-21T06:34:43.323Z,97.10
2019-02-21T06:37:12.820Z,97.10
2019-02-21T06:39:41.551Z,97.20
2019-02-21T06:42:10.152Z,97.20
2019-02-21T06:44:38.703Z,97.10
2019-02-21T06:47:07.250Z,97.00
2019-02-21T06:49:35.810Z,97.20
2019-02-21T06:52:04.320Z,96.70
2019-02-21T06:54:32.843Z,96.60
2019-02-21T06:57:01.429Z,96.20
2019-02-21T06:59:30.031Z,95.90
2019-02-21T07:01:58.628Z,95.60
2019-02-21T07:04:27.097Z,95.50
2019-02-21T07:06:56.864Z,95.10
2019-02-21T07:09:25.619Z,94.90
2019-02-21T07:11:54.179Z,94.60
2019-02-21T07:14:22.670Z,94.40
2019-02-21T07:16:51.314Z,94.10
2019-02-21T07:19:19.810Z,93.60
2019-02-21T07:21:48.476Z,93.10
2019-02-21T07:24:18.146Z,92.70
2019-02-21T07:26:46.853Z,92.20
2019-02-21T07:29:15.339Z,91.60
2019-02-21T07:31:43.808Z,91.10
2019-02-21T07:34:12.453Z,90.80
2019-02-21T07:36:40.985Z,90.60
2019-02-21T07:39:17.193Z,89.10
2019-02-21T07:41:41.641Z,89.20
2019-02-21T07:44:12.290Z,88.80
2019-02-21T07:46:40.271Z,88.00
2019-02-21T07:49:08.738Z,88.00
2019-02-21T07:51:37.229Z,88.10
2019-02-21T07:54:05.971Z,88.10
2019-02-21T07:56:42.154Z,89.30
2019-02-21T07:59:04.985Z,88.80
2019-02-21T08:01:33.571Z,89.60
2019-02-21T08:04:02.044Z,90.00
2019-02-21T08:06:30.608Z,90.00
2019-02-21T08:08:59.159Z,90.20
2019-02-21T08:11:27.786Z,90.20
2019-02-21T08:13:56.296Z,89.90
2019-02-21T08:16:24.827Z,89.40
2019-02-21T08:18:53.371Z,88.50
2019-02-21T08:21:21.879Z,87.30
2019-02-21T08:23:51.098Z,87.40
2019-02-21T08:26:20.254Z,87.80
2019-02-21T08:28:48.866Z,87.10
2019-02-21T08:31:17.520Z,86.70
2019-02-21T08:33:58.704Z,87.10
2019-02-21T08:36:27.518Z,86.10
2019-02-21T08:38:56.142Z,86.50
2019-02-21T08:41:25.816Z,86.40
2019-02-21T08:43:57.215Z,86.30
2019-02-21T08:46:24.683Z,85.50
2019-02-21T08:48:53.252Z,83.70
2019-02-21T08:51:21.715Z,81.40
2019-02-21T08:53:50.204Z,80.90
2019-02-21T08:56:18.674Z,82.00
2019-02-21T08:58:47.264Z,81.60
2019-02-21T09:01:15.764Z,81.10
2019-02-21T09:03:44.366Z,80.20
2019-02-21T09:06:12.862Z,78.50
2019-02-21T09:08:41.434Z,77.40
2019-02-21T09:11:10.188Z,77.20
2019-02-21T09:13:41.509Z,75.80
2019-02-21T09:16:08.946Z,75.00
2019-02-21T09:18:37.513Z,74.10
2019-02-21T09:21:06.071Z,73.90
2019-02-21T09:23:34.567Z,73.70
2019-02-21T09:26:03.039Z,74.20
2019-02-21T09:28:31.686Z,75.10
2019-02-21T09:31:00.257Z,76.30
2019-02-21T09:33:28.832Z,76.90
2019-02-21T09:35:57.399Z,77.30
2019-02-21T09:38:25.959Z,76.70
2019-02-21T09:40:54.515Z,75.80
2019-02-21T09:43:22.993Z,74.10
2019-02-21T09:45:51.542Z,73.80
2019-02-21T09:48:20.012Z,72.60
2019-02-21T09:50:48.578Z,71.30
2019-02-21T09:53:17.091Z,68.60
2019-02-21T09:55:45.621Z,68.00
2019-02-21T09:58:14.191Z,67.50
2019-02-21T10:00:42.731Z,67.80
2019-02-21T10:03:11.383Z,68.00
2019-02-21T10:05:39.951Z,68.90
2019-02-21T10:08:08.424Z,69.50
2019-02-21T10:10:36.987Z,70.70
2019-02-21T10:13:05.695Z,71.40
2019-02-21T10:15:34.227Z,72.00
2019-02-21T10:18:03.271Z,72.40
2019-02-21T10:20:31.827Z,72.00
2019-02-21T10:23:00.323Z,71.40
2019-02-21T10:25:32.639Z,69.80
2019-02-21T10:28:01.137Z,67.50
2019-02-21T10:30:29.754Z,66.10
2019-02-21T10:32:58.260Z,64.20
2019-02-21T10:35:26.808Z,63.00
2019-02-21T10:37:55.319Z,62.30
2019-02-21T10:40:23.936Z,61.00
2019-02-21T10:42:52.475Z,60.80
2019-02-21T10:45:22.482Z,60.40
2019-02-21T10:47:51.127Z,59.70
2019-02-21T10:50:21.307Z,60.40
2019-02-21T10:52:49.987Z,61.50
2019-02-21T10:55:19.467Z,62.20
2019-02-21T10:57:48.184Z,61.70
2019-02-21T11:00:26.452Z,61.10
2019-02-21T11:02:55.533Z,60.60
2019-02-21T11:05:24.167Z,60.70
2019-02-21T11:07:52.639Z,60.20
2019-02-21T11:10:31.096Z,61.60
2019-02-21T11:12:59.610Z,61.40
2019-02-21T11:15:28.268Z,60.80
2019-02-21T11:17:56.893Z,60.50
2019-02-21T11:20:25.591Z,60.80
2019-02-21T11:22:54.159Z,60.40
2019-02-21T11:25:22.854Z,60.30
2019-02-21T11:27:51.466Z,60.10
2019-02-21T11:30:22.691Z,59.80
2019-02-21T11:32:51.362Z,59.90
2019-02-21T11:35:19.936Z,61.00
2019-02-21T11:37:48.578Z,61.50
2019-02-21T11:40:17.951Z,61.50
2019-02-21T11:42:46.731Z,60.80
2019-02-21T11:45:16.953Z,61.30
2019-02-21T11:47:45.520Z,62.40
2019-02-21T11:50:16.127Z,63.10
2019-02-21T11:52:44.750Z,64.10
2019-02-21T11:55:21.347Z,64.50
2019-02-21T11:57:49.818Z,63.20
2019-02-21T12:00:21.649Z,63.60
2019-02-21T12:02:50.315Z,63.90
2019-02-21T12:05:30.254Z,64.00
2019-02-21T12:07:49.158Z,64.80
2019-02-21T12:10:17.799Z,64.50
2019-02-21T12:12:46.344Z,63.80
2019-02-21T12:15:16.255Z,63.60
2019-02-21T12:17:44.731Z,62.50
2019-02-21T12:20:18.163Z,60.10
2019-02-21T12:22:47.240Z,59.50
2019-02-21T12:25:21.059Z,58.50
2019-02-21T12:27:49.622Z,59.00
2019-02-21T12:30:20.027Z,60.50
2019-02-21T12:32:48.702Z,62.10
2019-02-21T12:35:28.761Z,62.60
2019-02-21T12:37:47.653Z,63.90
2019-02-21T12:40:18.732Z,63.40
2019-02-21T12:42:47.305Z,62.90
2019-02-21T12:45:17.682Z,62.60
2019-02-21T12:47:50.723Z,61.30
2019-02-21T12:50:16.511Z,60.20
2019-02-21T12:52:45.151Z,60.60
2019-02-21T12:55:26.580Z,61.70
2019-02-21T12:57:44.771Z,62.70
2019-02-21T13:00:21.230Z,62.50
2019-02-21T13:02:49.952Z,63.20
2019-02-21T13:05:18.571Z,64.30
2019-02-21T13:07:47.224Z,64.10
2019-02-21T13:10:20.351Z,64.00
2019-02-21T13:12:48.907Z,66.20
2019-02-21T13:15:17.811Z,67.20
2019-02-21T13:17:46.286Z,67.10
2019-02-21T13:20:15.314Z,66.40
2019-02-21T13:22:43.873Z,65.80
2019-02-21T13:25:14.496Z,65.10
2019-02-21T13:27:43.116Z,63.20
2019-02-21T13:30:14.248Z,61.50
2019-02-21T13:32:42.847Z,61.60
2019-02-21T13:35:11.650Z,62.50
2019-02-21T13:37:40.302Z,62.90
2019-02-21T13:40:11.611Z,63.30
2019-02-21T13:42:40.115Z,63.50
2019-02-21T13:45:10.498Z,63.90
2019-02-21T13:47:39.336Z,63.60
2019-02-21T13:50:13.698Z,63.40
2019-02-21T13:52:42.251Z,63.80
2019-02-21T13:55:11.599Z,63.60
2019-02-21T13:57:40.143Z,63.30
2019-02-21T14:00:20.597Z,61.70
2019-02-21T14:02:49.178Z,61.90
2019-02-21T14:05:17.735Z,62.00
2019-02-21T14:07:46.307Z,62.10
2019-02-21T14:10:15.299Z,62.30
2019-02-21T14:12:43.944Z,61.90
2019-02-21T14:15:24.757Z,63.30
2019-02-21T14:17:53.359Z,64.60
2019-02-21T14:20:21.902Z,64.70
2019-02-21T14:22:50.502Z,63.70
2019-02-21T14:25:19.051Z,64.80
2019-02-21T14:27:47.622Z,62.80
2019-02-21T14:30:21.363Z,62.10
2019-02-21T14:32:49.915Z,61.90
2019-02-21T14:35:18.422Z,61.40
2019-02-21T14:37:46.991Z,61.00
2019-02-21T14:40:16.798Z,61.50
2019-02-21T14:42:45.350Z,63.00
2019-02-21T14:45:19.687Z,64.00
2019-02-21T14:47:48.427Z,65.40
2019-02-21T14:50:17.820Z,65.70
2019-02-21T14:52:46.290Z,65.50
2019-02-21T14:55:15.931Z,64.90
2019-02-21T14:57:44.560Z,65.20
2019-02-21T15:00:27.413Z,65.20
2019-02-21T15:02:57.869Z,65.40
2019-02-21T15:05:26.411Z,66.10
2019-02-21T15:07:54.907Z,66.20
2019-02-21T15:10:23.540Z,66.60
2019-02-21T15:12:52.104Z,66.00
2019-02-21T15:15:25.939Z,65.90
2019-02-21T15:17:54.575Z,65.60
2019-02-21T15:20:23.115Z,65.20
2019-02-21T15:22:53.829Z,65.30
2019-02-21T15:25:21.815Z,64.90
2019-02-21T15:27:50.283Z,64.60
2019-02-21T15:30:23.575Z,64.90
2019-02-21T15:32:52.182Z,64.10
2019-02-21T15:35:20.676Z,64.00
2019-02-21T15:37:49.167Z,64.20
2019-02-21T15:40:17.801Z,64.10
2019-02-21T15:42:46.419Z,64.20
2019-02-21T15:45:23.175Z,64.40
2019-02-21T15:47:47.765Z,64.80
2019-02-21T15:50:19.554Z,64.80
2019-02-21T15:52:47.388Z,64.90
2019-02-21T15:55:18.050Z,65.10
2019-02-21T15:57:46.613Z,65.70
2019-02-21T16:00:17.593Z,65.80
2019-02-21T16:02:46.295Z,66.10
2019-02-21T16:05:14.910Z,66.50
2019-02-21T16:07:43.577Z,66.70
2019-02-21T16:10:28.916Z,66.80
2019-02-21T16:12:57.872Z,67.00
2019-02-21T16:15:27.031Z,67.10
2019-02-21T16:17:55.674Z,67.30
2019-02-21T16:20:24.235Z,67.90
2019-02-21T16:22:52.928Z,67.30
2019-02-21T16:25:27.109Z,68.20
2019-02-21T16:27:55.844Z,68.70
2019-02-21T16:30:24.648Z,69.00
2019-02-21T16:32:53.257Z,69.30
2019-02-21T16:35:22.006Z,69.50
2019-02-21T16:37:50.587Z,69.60
2019-02-21T16:40:20.115Z,69.80
2019-02-21T16:42:49.014Z,70.10
2019-02-21T16:45:19.270Z,70.20
2019-02-21T16:47:47.787Z,70.10
2019-02-21T16:50:16.454Z,70.20
2019-02-21T16:52:45.087Z,70.70
2019-02-21T16:55:16.491Z,70.80
2019-02-21T16:57:44.987Z,70.90
2019-02-21T17:00:15.912Z,71.50
2019-02-21T17:02:44.563Z,72.10
2019-02-21T17:05:13.809Z,72.00
2019-02-21T17:07:42.482Z,71.50
2019-02-21T17:10:13.678Z,71.90
2019-02-21T17:12:42.310Z,71.80
2019-02-21T17:15:15.355Z,71.80
2019-02-21T17:17:43.998Z,71.90
2019-02-21T17:20:15.419Z,71.90
2019-02-21T17:22:43.967Z,71.90
2019-02-21T17:25:14.618Z,71.90
2019-02-21T17:27:44.044Z,72.00
2019-02-21T17:30:17.361Z,72.30
2019-02-21T17:32:45.963Z,72.50
2019-02-21T17:35:15.007Z,73.00
2019-02-21T17:37:43.615Z,73.50
2019-02-21T17:40:25.554Z,73.40
2019-02-21T17:42:54.161Z,73.30
2019-02-21T17:45:23.615Z,73.80
2019-02-21T17:47:52.253Z,74.20
2019-02-21T17:50:20.948Z,74.40
2019-02-21T17:52:49.519Z,74.60
2019-02-21T17:55:18.656Z,74.80
2019-02-21T17:58:08.099Z,74.90
2019-02-21T18:00:38.221Z,75.10
2019-02-21T18:03:06.818Z,75.20
2019-02-21T18:05:35.311Z,75.30
2019-02-21T18:08:04.248Z,75.60
2019-02-21T18:10:32.744Z,75.60
2019-02-21T18:13:01.309Z,75.80
2019-02-21T18:15:29.851Z,75.90
2019-02-21T18:17:58.347Z,75.90
2019-02-21T18:20:26.838Z,75.90
2019-02-21T18:22:55.376Z,76.00
2019-02-21T18:25:35.554Z,76.30
2019-02-21T18:28:04.182Z,76.40
2019-02-21T18:30:32.921Z,76.10
2019-02-21T18:33:01.470Z,76.80
2019-02-21T18:35:30.039Z,76.70
2019-02-21T18:37:58.748Z,76.90
2019-02-21T18:40:28.283Z,76.90
2019-02-21T18:42:57.019Z,77.10
2019-02-21T18:45:26.487Z,77.60
2019-02-21T18:47:54.955Z,77.90
2019-02-21T18:50:23.653Z,78.00
2019-02-21T18:52:52.237Z,78.30
2019-02-21T18:55:20.783Z,78.80
2019-02-21T18:57:49.328Z,79.30
2019-02-21T19:00:25.919Z,79.70
2019-02-21T19:02:54.458Z,79.80
2019-02-21T19:05:23.275Z,80.00
2019-02-21T19:08:03.324Z,80.20
2019-02-21T19:10:23.251Z,80.20
2019-02-21T19:12:51.954Z,79.80
2019-02-21T19:15:21.296Z,80.20
2019-02-21T19:17:49.978Z,80.20
2019-02-21T19:20:20.016Z,80.50
2019-02-21T19:22:48.651Z,81.10
2019-02-21T19:25:17.291Z,82.00
2019-02-21T19:27:46.067Z,82.50
2019-02-21T19:30:35.359Z,83.30
2019-02-21T19:33:04.042Z,84.20
2019-02-21T19:35:32.779Z,85.00
2019-02-21T19:38:09.952Z,85.60
2019-02-21T19:40:31.767Z,86.20
2019-02-21T19:43:00.262Z,86.60
2019-02-21T19:45:28.938Z,86.90
2019-02-21T19:47:57.587Z,86.90
2019-02-21T19:50:26.523Z,86.40
2019-02-21T19:52:55.087Z,86.70
2019-02-21T19:55:23.691Z,86.20
2019-02-21T19:57:52.186Z,85.80
2019-02-21T20:00:24.467Z,85.40
2019-02-21T20:02:53.103Z,85.00
2019-02-21T20:05:21.743Z,84.50
2019-02-21T20:07:50.631Z,84.20
2019-02-21T20:10:19.542Z,84.70
2019-02-21T20:12:48.184Z,84.20
2019-02-21T20:15:16.868Z,84.30
2019-02-21T20:17:45.542Z,84.60
2019-02-21T20:20:19.872Z,84.90
2019-02-21T20:22:48.415Z,85.30
2019-02-21T20:25:17.023Z,85.60
2019-02-21T20:27:45.523Z,85.60
2019-02-21T20:30:16.431Z,85.60
2019-02-21T20:32:44.904Z,85.60
2019-02-21T20:35:13.704Z,85.50
2019-02-21T20:37:42.268Z,85.10
2019-02-21T20:40:12.017Z,84.90
2019-02-21T20:42:40.577Z,84.70
2019-02-21T20:45:11.363Z,84.70
2019-02-21T20:47:39.938Z,84.60
2019-02-21T20:50:10.444Z,84.70
2019-02-21T20:52:39.157Z,84.60
2019-02-21T20:55:09.643Z,84.40
2019-02-21T20:57:38.202Z,84.20
2019-02-21T21:00:16.138Z,84.00
2019-02-21T21:02:44.642Z,84.20
2019-02-21T21:05:13.547Z,84.00
2019-02-21T21:07:42.166Z,84.00
2019-02-21T21:10:16.182Z,84.80
2019-02-21T21:12:45.015Z,83.80
2019-02-21T21:15:14.825Z,83.70
2019-02-21T21:17:43.564Z,83.80
2019-02-21T21:20:16.839Z,83.90
2019-02-21T21:22:44.582Z,84.00
2019-02-21T21:25:17.892Z,84.10
2019-02-21T21:27:46.503Z,83.90
2019-02-21T21:30:16.413Z,83.80
2019-02-21T21:32:45.095Z,83.70
2019-02-21T21:35:13.689Z,83.80
2019-02-21T21:37:42.465Z,83.70
2019-02-21T21:40:18.855Z,83.80
2019-02-21T21:42:47.356Z,83.80
2019-02-21T21:45:20.229Z,83.80
2019-02-21T21:47:48.860Z,83.90
2019-02-21T21:50:18.767Z,84.10
2019-02-21T21:52:47.408Z,84.00
2019-02-21T21:55:15.955Z,84.00
2019-02-21T21:57:44.562Z,84.00
2019-02-21T22:00:21.447Z,84.20
2019-02-21T22:02:50.180Z,84.40
2019-02-21T22:05:18.771Z,84.80
2019-02-21T22:07:49.484Z,85.20
2019-02-21T22:10:18.322Z,85.10
2019-02-21T22:12:46.900Z,84.90
2019-02-21T22:15:23.728Z,85.10
2019-02-21T22:17:52.364Z,84.90
2019-02-21T22:20:20.829Z,85.10
2019-02-21T22:22:49.463Z,85.10
2019-02-21T22:25:18.026Z,85.30
2019-02-21T22:27:46.520Z,85.50
2019-02-21T22:30:18.130Z,85.50
2019-02-21T22:32:46.810Z,85.70
2019-02-21T22:35:15.493Z,86.00
2019-02-21T22:37:44.178Z,86.10
2019-02-21T22:40:15.075Z,86.10
2019-02-21T22:42:43.635Z,86.10
2019-02-21T22:45:12.318Z,86.20
2019-02-21T22:47:40.975Z,86.00
2019-02-21T22:50:19.554Z,85.90
2019-02-21T22:52:48.191Z,85.90
2019-02-21T22:55:16.923Z,85.50
2019-02-21T22:57:45.475Z,85.50
2019-02-21T23:00:36.458Z,85.50
2019-02-21T23:03:09.094Z,84.50
2019-02-21T23:05:52.564Z,85.90
2019-02-21T23:08:29.910Z,86.50
2019-02-21T23:10:58.544Z,87.70
2019-02-21T23:13:27.103Z,89.10
2019-02-21T23:15:55.663Z,89.80
2019-02-21T23:18:24.272Z,90.30
2019-02-21T23:20:52.905Z,90.80
2019-02-21T23:23:21.449Z,90.70
2019-02-21T23:25:50.011Z,90.70
2019-02-21T23:28:18.476Z,90.60
2019-02-21T23:30:46.971Z,90.30
2019-02-21T23:33:15.604Z,90.30
2019-02-21T23:35:44.093Z,90.30
2019-02-21T23:38:12.637Z,90.70
2019-02-21T23:40:41.172Z,90.40
2019-02-21T23:43:09.751Z,90.30
2019-02-21T23:45:38.215Z,90.20
2019-02-21T23:48:06.706Z,90.20
2019-02-21T23:50:35.175Z,90.10
2019-02-21T23:53:03.779Z,89.80
2019-02-21T23:55:32.386Z,89.40
2019-02-21T23:58:00.858Z,89.00
